Terminal Aerodrome Forecast
Issued by NWS Miami, FL

Home | Current Version | Previous Version | Text Only | Print | Product List | Glossary On
Versions: 1 2 3 4 5 6 7 8 9 10 11 12 13 14 15 16 17 18 19 20 21 22 23 24 25 26 27 28 29 30 31 32 33 34 35 36 37
531
FTUS42 KMFL 131729
TAFPBI
TAF
KPBI 131729Z 1318/1418 32012KT P6SM SKC
     FM140400 02010KT P6SM SKC
     FM141400 08015KT P6SM SCT035=

USA.gov is the U.S. government's official web portal to all federal, state and local government web resources and services.